createdAt,value
2022-08-29T00:02:00.886Z,12.93
2022-08-29T00:04:30.364Z,15.25
2022-08-29T00:07:01.126Z,13.55
2022-08-29T00:09:30.498Z,13.23
2022-08-29T00:12:05.880Z,15.27
2022-08-29T00:14:35.240Z,13.27
2022-08-29T00:17:07.094Z,14.98
2022-08-29T00:19:36.563Z,15.25
2022-08-29T00:22:06.179Z,15.48
2022-08-29T00:24:36.426Z,16.20
2022-08-29T00:27:06.908Z,16.25
2022-08-29T00:29:36.756Z,13.93
2022-08-29T00:32:09.321Z,16.90
2022-08-29T00:34:38.605Z,13.40
2022-08-29T00:37:07.877Z,14.18
2022-08-29T00:39:40.024Z,16.65
2022-08-29T00:42:09.577Z,12.52
2022-08-29T00:44:38.913Z,12.82
2022-08-29T00:47:13.514Z,11.98
2022-08-29T00:49:49.806Z,12.45
2022-08-29T00:52:41.110Z,12.15
2022-08-29T00:55:17.568Z,14.52
2022-08-29T00:57:54.662Z,10.35
2022-08-29T01:00:25.865Z,11.35
2022-08-29T01:02:58.709Z,10.68
2022-08-29T01:05:28.348Z,9.68
2022-08-29T01:07:57.868Z,8.60
2022-08-29T01:10:39.861Z,10.35
2022-08-29T01:13:14.092Z,9.45
2022-08-29T01:15:46.933Z,8.80
2022-08-29T01:18:19.240Z,7.25
2022-08-29T01:21:35.531Z,7.97
2022-08-29T01:24:35.239Z,8.30
2022-08-29T01:27:10.331Z,8.70
2022-08-29T01:29:39.882Z,7.65
2022-08-29T01:32:09.600Z,8.80
2022-08-29T01:34:41.382Z,13.40
2022-08-29T01:37:15.433Z,6.57
2022-08-29T01:39:46.862Z,5.60
2022-08-29T01:42:24.141Z,5.07
2022-08-29T01:44:59.142Z,6.18
2022-08-29T01:47:39.848Z,5.05
2022-08-29T01:50:15.444Z,5.13
2022-08-29T01:52:45.416Z,4.93
2022-08-29T01:55:15.031Z,6.68
2022-08-29T01:57:44.888Z,6.07
2022-08-29T02:00:19.336Z,5.30
2022-08-29T02:02:48.952Z,6.15
2022-08-29T02:05:18.332Z,4.32
2022-08-29T02:07:50.426Z,4.32
2022-08-29T02:10:19.964Z,4.30
2022-08-29T02:12:49.595Z,2.72
2022-08-29T02:15:20.064Z,1.63
2022-08-29T02:17:49.654Z,1.98
2022-08-29T02:20:19.692Z,2.03
2022-08-29T02:22:49.208Z,1.27
2022-08-29T02:25:31.478Z,2.75
2022-08-29T02:28:01.212Z,1.40
2022-08-29T02:30:30.475Z,1.48
2022-08-29T02:32:59.778Z,2.30
2022-08-29T02:35:29.407Z,1.45
2022-08-29T02:38:00.558Z,1.42
2022-08-29T02:40:31.724Z,1.48
2022-08-29T02:43:03.141Z,1.45
2022-08-29T02:45:33.315Z,1.63
2022-08-29T02:48:02.669Z,2.42
2022-08-29T02:50:32.254Z,0.95
2022-08-29T02:53:01.610Z,1.25
2022-08-29T02:55:31.292Z,0.80
2022-08-29T02:58:00.651Z,1.17
2022-08-29T03:00:30.409Z,1.05
2022-08-29T03:02:59.996Z,0.90
2022-08-29T03:05:34.312Z,1.40
2022-08-29T03:08:08.418Z,0.93
2022-08-29T03:10:38.514Z,2.17
2022-08-29T03:13:08.147Z,1.45
2022-08-29T03:15:37.607Z,1.05
2022-08-29T03:18:07.607Z,1.83
2022-08-29T03:20:39.716Z,1.05
2022-08-29T03:23:10.631Z,1.75
2022-08-29T03:25:40.451Z,1.13
2022-08-29T03:28:09.789Z,1.33
2022-08-29T03:30:39.271Z,1.38
2022-08-29T03:33:11.785Z,1.10
2022-08-29T03:35:41.989Z,1.25
2022-08-29T03:38:11.467Z,1.67
2022-08-29T03:40:43.881Z,1.45
2022-08-29T03:43:13.123Z,1.58
2022-08-29T03:45:43.262Z,1.90
2022-08-29T03:48:12.662Z,1.73
2022-08-29T03:50:42.015Z,2.08
2022-08-29T03:53:11.360Z,2.30
2022-08-29T03:55:41.162Z,1.80
2022-08-29T03:58:10.430Z,3.15
2022-08-29T04:00:39.902Z,2.60
2022-08-29T04:03:09.282Z,2.45
2022-08-29T04:05:38.626Z,2.15
2022-08-29T04:08:09.386Z,2.40
2022-08-29T04:10:40.804Z,1.88
2022-08-29T04:13:11.413Z,1.73
2022-08-29T04:15:43.950Z,2.30
2022-08-29T04:18:15.468Z,1.40
2022-08-29T04:20:46.505Z,2.28
2022-08-29T04:23:16.594Z,1.92
2022-08-29T04:25:46.252Z,2.08
2022-08-29T04:28:16.453Z,1.92
2022-08-29T04:30:52.839Z,1.58
2022-08-29T04:33:26.921Z,1.73
2022-08-29T04:35:56.153Z,1.80
2022-08-29T04:38:25.436Z,1.50
2022-08-29T04:40:55.209Z,1.50
2022-08-29T04:43:24.484Z,1.60
2022-08-29T04:46:00.408Z,1.70
2022-08-29T04:48:30.884Z,1.60
2022-08-29T04:51:02.802Z,2.35
2022-08-29T04:53:32.506Z,2.25
2022-08-29T04:56:10.284Z,1.52
2022-08-29T04:58:43.577Z,1.40
2022-08-29T05:01:19.919Z,1.95
2022-08-29T05:03:50.475Z,0.82
2022-08-29T05:06:22.822Z,1.50
2022-08-29T05:08:59.105Z,1.10
2022-08-29T05:11:32.922Z,1.85
2022-08-29T05:14:03.634Z,1.40
2022-08-29T05:16:38.202Z,0.80
2022-08-29T05:19:09.723Z,1.08
2022-08-29T05:21:41.593Z,2.55
2022-08-29T05:24:14.077Z,1.50
2022-08-29T05:26:46.773Z,1.30
2022-08-29T05:29:16.338Z,1.30
2022-08-29T05:31:46.619Z,1.27
2022-08-29T05:34:33.880Z,1.25
2022-08-29T05:37:07.690Z,2.22
2022-08-29T05:39:39.312Z,1.00
2022-08-29T05:42:11.091Z,1.30
2022-08-29T05:44:41.656Z,1.67
2022-08-29T05:47:14.399Z,1.20
2022-08-29T05:49:47.082Z,1.23
2022-08-29T05:52:20.336Z,1.10
2022-08-29T05:54:50.311Z,2.13
2022-08-29T05:57:24.554Z,2.17
2022-08-29T05:59:56.259Z,1.17
2022-08-29T06:02:26.332Z,1.42
2022-08-29T06:04:55.831Z,0.90
2022-08-29T06:07:25.461Z,0.80
2022-08-29T06:10:09.427Z,1.20
2022-08-29T06:12:38.759Z,0.65
2022-08-29T06:15:09.268Z,1.80
2022-08-29T06:17:39.550Z,1.58
2022-08-29T06:20:10.908Z,1.05
2022-08-29T06:22:41.128Z,0.90
2022-08-29T06:25:37.551Z,1.17
2022-08-29T06:28:00.898Z,0.70
2022-08-29T06:30:33.258Z,1.45
2022-08-29T06:33:03.644Z,0.95
2022-08-29T06:35:33.185Z,0.80
2022-08-29T06:38:02.479Z,1.27
2022-08-29T06:40:31.907Z,1.15
2022-08-29T06:43:01.482Z,1.08
2022-08-29T06:45:30.890Z,1.50
2022-08-29T06:48:00.221Z,1.45
2022-08-29T06:50:29.526Z,2.17
2022-08-29T06:53:14.531Z,1.02
2022-08-29T06:55:49.373Z,1.88
2022-08-29T06:58:21.359Z,1.00
2022-08-29T07:00:50.785Z,1.48
2022-08-29T07:03:20.240Z,1.50
2022-08-29T07:05:55.233Z,3.50
2022-08-29T07:08:24.819Z,1.33
2022-08-29T07:10:54.146Z,1.05
2022-08-29T07:13:23.497Z,1.52
2022-08-29T07:15:53.096Z,1.85
2022-08-29T07:18:22.383Z,1.10
2022-08-29T07:20:52.465Z,3.08
2022-08-29T07:23:22.722Z,1.40
2022-08-29T07:25:52.792Z,1.38
2022-08-29T07:28:22.067Z,1.83
2022-08-29T07:30:52.311Z,1.98
2022-08-29T07:33:21.640Z,1.00
2022-08-29T07:35:52.917Z,1.27
2022-08-29T07:38:23.320Z,1.67
2022-08-29T07:41:07.666Z,1.70
2022-08-29T07:43:38.160Z,1.50
2022-08-29T07:46:17.723Z,2.15
2022-08-29T07:48:47.381Z,1.85
2022-08-29T07:51:24.055Z,2.35
2022-08-29T07:53:55.120Z,1.77
2022-08-29T07:56:37.567Z,3.13
2022-08-29T07:59:08.928Z,1.42
2022-08-29T08:01:39.286Z,1.25
2022-08-29T08:04:11.267Z,1.98
2022-08-29T08:06:44.163Z,2.53
2022-08-29T08:09:16.345Z,1.85
2022-08-29T08:11:48.196Z,1.20
2022-08-29T08:14:18.970Z,1.90
2022-08-29T08:16:48.825Z,2.05
2022-08-29T08:19:19.346Z,1.40
2022-08-29T08:21:49.679Z,2.42
2022-08-29T08:24:21.242Z,1.52
2022-08-29T08:26:52.235Z,1.17
2022-08-29T08:29:21.530Z,1.52
2022-08-29T08:31:52.758Z,2.10
2022-08-29T08:34:23.001Z,1.30
2022-08-29T08:36:52.261Z,1.20
2022-08-29T08:39:21.620Z,0.90
2022-08-29T08:42:26.716Z,1.33
2022-08-29T08:45:09.583Z,2.53
2022-08-29T08:47:53.172Z,1.73
2022-08-29T08:50:59.191Z,0.80
2022-08-29T08:53:44.744Z,0.73
2022-08-29T08:56:43.056Z,1.00
2022-08-29T08:59:44.620Z,0.50
2022-08-29T09:02:55.568Z,0.80
2022-08-29T09:06:03.009Z,0.70
2022-08-29T09:09:03.884Z,0.77
2022-08-29T09:12:23.254Z,0.55
2022-08-29T09:15:14.228Z,0.68
2022-08-29T09:18:06.819Z,1.00
2022-08-29T09:20:42.197Z,0.45
2022-08-29T09:23:48.076Z,1.50
2022-08-29T09:26:25.666Z,1.13
2022-08-29T09:28:56.190Z,0.90
2022-08-29T09:31:37.142Z,1.75
2022-08-29T09:34:57.074Z,1.50
2022-08-29T09:37:42.188Z,2.00
2022-08-29T09:40:19.793Z,2.90
2022-08-29T09:43:03.582Z,3.03
2022-08-29T09:45:33.124Z,2.67
2022-08-29T09:48:19.023Z,4.47
2022-08-29T09:50:48.842Z,3.25
2022-08-29T09:53:25.630Z,2.70
2022-08-29T09:55:56.970Z,1.85
2022-08-29T09:58:40.537Z,1.75
2022-08-29T10:01:19.255Z,1.85
2022-08-29T10:04:06.313Z,3.05
2022-08-29T10:06:46.212Z,3.47
2022-08-29T10:09:30.029Z,3.10
2022-08-29T10:12:27.893Z,4.47
2022-08-29T10:18:02.464Z,4.47
2022-08-29T10:20:53.653Z,3.38
2022-08-29T10:24:05.308Z,4.72
2022-08-29T10:27:11.110Z,4.35
2022-08-29T10:30:17.419Z,2.90
2022-08-29T10:33:17.286Z,2.65
2022-08-29T10:36:20.891Z,5.65
2022-08-29T10:39:07.146Z,3.63
2022-08-29T10:42:22.671Z,5.65
2022-08-29T10:45:28.457Z,2.85
2022-08-29T10:48:23.054Z,5.97
2022-08-29T10:51:33.898Z,3.00
2022-08-29T10:54:32.591Z,4.22
2022-08-29T10:57:04.972Z,3.88
2022-08-29T11:00:03.759Z,3.22
2022-08-29T11:03:04.430Z,4.13
2022-08-29T11:05:42.480Z,3.70
2022-08-29T11:08:35.565Z,2.65
2022-08-29T11:11:05.950Z,3.10
2022-08-29T11:13:51.303Z,3.20
2022-08-29T11:16:34.092Z,3.90
2022-08-29T11:19:23.167Z,2.17
2022-08-29T11:22:07.914Z,2.08
2022-08-29T11:24:44.061Z,1.58
2022-08-29T11:27:54.200Z,3.22
2022-08-29T11:33:37.584Z,3.70
2022-08-29T11:36:55.364Z,2.70
2022-08-29T11:40:01.843Z,2.47
2022-08-29T11:42:53.554Z,3.60
2022-08-29T11:45:39.684Z,2.45
2022-08-29T11:48:35.936Z,2.25
2022-08-29T11:51:51.703Z,2.17
2022-08-29T11:54:55.094Z,2.60
2022-08-29T11:57:50.517Z,1.52
2022-08-29T12:00:45.369Z,1.98
2022-08-29T12:03:47.159Z,1.88
2022-08-29T12:07:01.204Z,2.28
2022-08-29T12:09:53.239Z,1.75
2022-08-29T12:12:47.355Z,1.48
2022-08-29T12:15:53.514Z,2.85
2022-08-29T12:18:57.237Z,1.85
2022-08-29T12:21:51.662Z,2.42
2022-08-29T12:24:44.072Z,2.80
2022-08-29T12:28:25.086Z,4.13
2022-08-29T12:31:30.457Z,3.38
2022-08-29T12:34:49.757Z,3.97
2022-08-29T12:37:46.210Z,4.95
2022-08-29T12:41:14.261Z,5.10
2022-08-29T12:43:47.803Z,5.22
2022-08-29T12:46:34.167Z,5.07
2022-08-29T12:49:31.734Z,5.93
2022-08-29T12:52:08.413Z,4.78
2022-08-29T12:54:45.996Z,4.88
2022-08-29T12:57:37.203Z,4.40
2022-08-29T13:00:20.267Z,6.72
2022-08-29T13:03:19.319Z,14.75
2022-08-29T13:05:49.440Z,5.50
2022-08-29T13:08:34.224Z,4.45
2022-08-29T13:11:11.599Z,5.82
2022-08-29T13:13:42.251Z,7.65
2022-08-29T13:16:32.486Z,6.80
2022-08-29T13:19:12.067Z,6.32
2022-08-29T13:21:46.728Z,7.07
2022-08-29T13:24:22.394Z,6.55
2022-08-29T13:27:12.398Z,8.48
2022-08-29T13:29:44.142Z,7.97
2022-08-29T13:32:27.834Z,8.68
2022-08-29T13:35:32.660Z,7.53
2022-08-29T13:38:25.032Z,7.80
2022-08-29T13:40:59.849Z,7.32
2022-08-29T13:43:45.799Z,5.13
2022-08-29T13:46:28.553Z,6.25
2022-08-29T13:49:05.966Z,6.68
2022-08-29T13:51:35.246Z,5.82
2022-08-29T13:54:04.434Z,5.40
2022-08-29T13:56:35.123Z,4.05
2022-08-29T13:59:05.973Z,5.43
2022-08-29T14:04:38.069Z,6.13
2022-08-29T14:07:10.563Z,6.18
2022-08-29T14:09:46.665Z,5.20
2022-08-29T14:12:17.298Z,5.85
2022-08-29T14:14:47.379Z,6.88
2022-08-29T14:17:39.187Z,6.65
2022-08-29T14:20:15.270Z,6.70
2022-08-29T14:22:46.077Z,6.85
2022-08-29T14:25:20.202Z,5.03
2022-08-29T14:27:50.343Z,5.07
2022-08-29T14:30:23.840Z,5.60
2022-08-29T14:32:56.495Z,4.78
2022-08-29T14:35:27.580Z,4.20
2022-08-29T14:38:03.071Z,4.70
2022-08-29T14:40:34.206Z,5.03
2022-08-29T14:43:04.751Z,6.53
2022-08-29T14:45:34.418Z,4.38
2022-08-29T14:48:04.699Z,4.28
2022-08-29T14:50:34.442Z,4.75
2022-08-29T14:53:03.820Z,4.80
2022-08-29T14:55:34.300Z,5.05
2022-08-29T14:58:03.970Z,4.65
2022-08-29T15:00:35.092Z,5.03
2022-08-29T15:03:15.217Z,4.43
2022-08-29T15:05:48.658Z,4.40
2022-08-29T15:08:23.219Z,5.10
2022-08-29T15:10:55.797Z,4.50
2022-08-29T15:13:25.088Z,5.68
2022-08-29T15:15:54.487Z,5.25
2022-08-29T15:19:05.529Z,6.07
2022-08-29T15:21:27.931Z,4.50
2022-08-29T15:23:57.917Z,4.72
2022-08-29T15:26:28.838Z,4.40
2022-08-29T15:29:00.221Z,3.60
2022-08-29T15:31:33.825Z,4.45
2022-08-29T15:34:13.275Z,3.92
2022-08-29T15:36:42.537Z,4.28
2022-08-29T15:39:11.838Z,4.05
2022-08-29T15:41:41.175Z,4.32
2022-08-29T15:44:13.529Z,5.40
2022-08-29T15:46:51.342Z,4.88
2022-08-29T15:49:27.013Z,5.60
2022-08-29T15:51:57.560Z,6.15
2022-08-29T15:54:28.093Z,6.13
2022-08-29T15:56:57.391Z,5.90
2022-08-29T15:59:54.361Z,6.53
2022-08-29T16:02:18.496Z,6.10
2022-08-29T16:04:48.733Z,7.05
2022-08-29T16:07:23.545Z,6.63
2022-08-29T16:10:04.568Z,6.45
2022-08-29T16:12:40.898Z,6.28
2022-08-29T16:15:10.740Z,6.28
2022-08-29T16:17:40.819Z,6.20
2022-08-29T16:20:16.215Z,6.60
2022-08-29T16:22:48.991Z,7.40
2022-08-29T16:25:19.836Z,13.57
2022-08-29T16:27:49.425Z,10.43
2022-08-29T16:30:20.314Z,9.43
2022-08-29T16:32:52.031Z,8.70
2022-08-29T16:35:21.729Z,11.77
2022-08-29T16:37:51.408Z,11.07
2022-08-29T16:40:33.428Z,10.05
2022-08-29T16:43:05.221Z,9.70
2022-08-29T16:45:35.705Z,8.25
2022-08-29T16:48:14.333Z,9.75
2022-08-29T16:50:45.480Z,9.40
2022-08-29T16:53:14.780Z,9.90
2022-08-29T16:55:44.157Z,11.52
2022-08-29T16:58:25.912Z,9.88
2022-08-29T17:00:55.210Z,8.82
2022-08-29T17:03:24.604Z,10.60
2022-08-29T17:05:54.351Z,9.02
2022-08-29T17:08:23.408Z,9.45
2022-08-29T17:10:52.718Z,9.02
2022-08-29T17:13:23.666Z,10.05
2022-08-29T17:15:53.394Z,9.60
2022-08-29T17:18:23.360Z,9.65
2022-08-29T17:21:00.846Z,8.75
2022-08-29T17:23:32.778Z,8.17
2022-08-29T17:26:06.011Z,8.27
2022-08-29T17:28:36.027Z,9.60
2022-08-29T17:31:06.496Z,7.53
2022-08-29T17:33:36.333Z,7.75
2022-08-29T17:36:08.576Z,9.25
2022-08-29T17:38:40.871Z,9.13
2022-08-29T17:41:15.159Z,8.18
2022-08-29T17:43:49.454Z,8.23
2022-08-29T17:46:22.886Z,8.32
2022-08-29T17:48:52.206Z,11.45
2022-08-29T17:51:21.667Z,9.70
2022-08-29T17:53:52.852Z,8.75
2022-08-29T17:56:45.013Z,8.77
2022-08-29T17:59:17.324Z,8.52
2022-08-29T18:01:47.643Z,8.40
2022-08-29T18:04:17.245Z,8.30
2022-08-29T18:06:47.693Z,9.13
2022-08-29T18:09:17.639Z,8.98
2022-08-29T18:11:51.011Z,8.95
2022-08-29T18:14:24.031Z,9.68
2022-08-29T18:16:55.086Z,8.77
2022-08-29T18:19:25.672Z,8.57
2022-08-29T18:21:55.974Z,7.70
2022-08-29T18:24:25.869Z,8.38
2022-08-29T18:26:55.547Z,7.00
2022-08-29T18:29:24.730Z,8.52
2022-08-29T18:31:54.272Z,7.88
2022-08-29T18:34:25.346Z,8.05
2022-08-29T18:36:54.703Z,7.03
2022-08-29T18:39:23.930Z,7.03
2022-08-29T18:41:53.278Z,6.68
2022-08-29T18:44:24.528Z,7.57
2022-08-29T18:46:54.202Z,7.25
2022-08-29T18:49:43.254Z,7.85
2022-08-29T18:52:14.407Z,7.85
2022-08-29T18:54:44.485Z,7.50
2022-08-29T18:57:13.729Z,6.93
2022-08-29T18:59:43.519Z,7.10
2022-08-29T19:02:14.028Z,6.55
2022-08-29T19:04:43.563Z,8.18
2022-08-29T19:07:12.839Z,8.57
2022-08-29T19:09:42.039Z,7.53
2022-08-29T19:12:12.034Z,7.60
2022-08-29T19:14:46.587Z,8.30
2022-08-29T19:17:16.000Z,8.07
2022-08-29T19:20:00.292Z,8.55
2022-08-29T19:22:29.900Z,8.52
2022-08-29T19:24:59.384Z,7.25
2022-08-29T19:27:42.885Z,7.60
2022-08-29T19:30:17.641Z,6.93
2022-08-29T19:32:55.471Z,7.38
2022-08-29T19:35:26.571Z,6.60
2022-08-29T19:37:57.742Z,6.60
2022-08-29T19:40:34.990Z,6.28
2022-08-29T19:43:13.560Z,6.70
2022-08-29T19:45:45.129Z,5.40
2022-08-29T19:48:14.754Z,5.68
2022-08-29T19:50:48.653Z,5.63
2022-08-29T19:53:26.332Z,5.47
2022-08-29T19:58:32.051Z,5.70
2022-08-29T20:01:11.112Z,5.57
2022-08-29T20:03:43.355Z,5.20
2022-08-29T20:06:13.370Z,5.72
2022-08-29T20:08:49.397Z,5.28
2022-08-29T20:11:23.158Z,5.57
2022-08-29T20:13:57.917Z,5.30
2022-08-29T20:16:33.155Z,5.13
2022-08-29T20:19:06.005Z,4.95
2022-08-29T20:21:36.909Z,5.78
2022-08-29T20:24:06.520Z,5.07
2022-08-29T20:26:40.948Z,5.22
2022-08-29T20:29:13.246Z,4.35
2022-08-29T20:31:42.720Z,4.57
2022-08-29T20:34:15.110Z,4.75
2022-08-29T20:36:59.844Z,5.40
2022-08-29T20:39:31.290Z,4.78
2022-08-29T20:42:02.371Z,5.70
2022-08-29T20:44:38.801Z,4.75
2022-08-29T20:47:12.640Z,4.22
2022-08-29T20:49:51.523Z,3.67
2022-08-29T20:52:21.760Z,3.75
2022-08-29T20:54:53.562Z,4.55
2022-08-29T20:57:26.128Z,4.78
2022-08-29T20:59:56.950Z,4.35
2022-08-29T21:02:38.757Z,4.57
2022-08-29T21:05:21.046Z,4.00
2022-08-29T21:07:54.663Z,4.57
2022-08-29T21:10:25.590Z,4.03
2022-08-29T21:12:58.399Z,4.00
2022-08-29T21:15:28.516Z,3.50
2022-08-29T21:17:58.113Z,3.35
2022-08-29T21:20:28.355Z,4.05
2022-08-29T21:23:01.659Z,3.00
2022-08-29T21:25:31.087Z,3.63
2022-08-29T21:28:00.682Z,3.72
2022-08-29T21:30:30.995Z,3.60
2022-08-29T21:33:00.501Z,3.33
2022-08-29T21:35:30.431Z,3.20
2022-08-29T21:37:59.707Z,3.33
2022-08-29T21:40:29.126Z,3.40
2022-08-29T21:42:58.483Z,3.33
2022-08-29T21:45:28.135Z,3.42
2022-08-29T21:47:59.062Z,3.28
2022-08-29T21:50:30.191Z,2.67
2022-08-29T21:52:59.507Z,3.50
2022-08-29T21:55:28.861Z,3.70
2022-08-29T21:58:00.406Z,3.22
2022-08-29T22:00:36.364Z,4.40
2022-08-29T22:03:09.993Z,4.30
2022-08-29T22:05:43.155Z,4.53
2022-08-29T22:08:14.347Z,4.80
2022-08-29T22:10:44.451Z,3.67
2022-08-29T22:13:13.848Z,4.35
2022-08-29T22:15:55.404Z,3.70
2022-08-29T22:18:25.319Z,4.00
2022-08-29T22:20:55.746Z,3.13
2022-08-29T22:23:25.811Z,3.90
2022-08-29T22:25:55.255Z,3.13
2022-08-29T22:28:25.593Z,3.80
2022-08-29T22:30:54.954Z,3.25
2022-08-29T22:33:24.233Z,3.30
2022-08-29T22:35:53.982Z,3.33
2022-08-29T22:38:23.317Z,3.10
2022-08-29T22:40:52.730Z,2.90
2022-08-29T22:43:22.325Z,2.85
2022-08-29T22:45:55.100Z,2.47
2022-08-29T22:48:24.329Z,5.32
2022-08-29T22:50:57.971Z,4.53
2022-08-29T22:53:28.077Z,2.78
2022-08-29T22:55:57.810Z,3.08
2022-08-29T22:58:27.114Z,3.13
2022-08-29T23:00:56.944Z,2.50
2022-08-29T23:03:26.214Z,3.90
2022-08-29T23:05:55.479Z,2.92
2022-08-29T23:08:24.644Z,3.17
2022-08-29T23:10:54.549Z,2.45
2022-08-29T23:13:25.061Z,2.67
2022-08-29T23:15:54.284Z,2.30
2022-08-29T23:18:24.214Z,2.50
2022-08-29T23:20:53.497Z,3.00
2022-08-29T23:23:22.959Z,2.65
2022-08-29T23:25:52.251Z,2.35
2022-08-29T23:28:21.635Z,2.63
2022-08-29T23:30:50.943Z,3.13
2022-08-29T23:33:21.459Z,3.63
2022-08-29T23:35:50.618Z,2.75
2022-08-29T23:38:20.499Z,3.78
2022-08-29T23:40:52.861Z,4.03
2022-08-29T23:43:23.676Z,3.53
2022-08-29T23:45:53.691Z,4.07
2022-08-29T23:48:27.379Z,5.85
2022-08-29T23:50:57.534Z,3.65
2022-08-29T23:53:27.163Z,5.03
2022-08-29T23:55:56.454Z,4.82
2022-08-29T23:58:25.670Z,3.85
